sensor_id;sensor_type;location;lat;lon;timestamp;temperature;humidity
15099;DHT22;33900;53.640;9.942;2023-03-01T00:01:59;4.80;75.80
15099;DHT22;33900;53.640;9.942;2023-03-01T00:04:24;4.80;75.80
15099;DHT22;33900;53.640;9.942;2023-03-01T00:06:50;4.80;75.90
15099;DHT22;33900;53.640;9.942;2023-03-01T00:09:16;4.80;76.00
15099;DHT22;33900;53.640;9.942;2023-03-01T00:11:42;4.80;76.00
15099;DHT22;33900;53.640;9.942;2023-03-01T00:14:07;4.70;76.00
15099;DHT22;33900;53.640;9.942;2023-03-01T00:16:34;4.70;76.10
15099;DHT22;33900;53.640;9.942;2023-03-01T00:19:00;4.70;76.10
15099;DHT22;33900;53.640;9.942;2023-03-01T00:21:26;4.70;76.10
15099;DHT22;33900;53.640;9.942;2023-03-01T00:23:52;4.70;76.20
15099;DHT22;33900;53.640;9.942;2023-03-01T00:26:18;4.70;76.20
15099;DHT22;33900;53.640;9.942;2023-03-01T00:28:44;4.70;76.30
15099;DHT22;33900;53.640;9.942;2023-03-01T00:31:11;4.60;76.30
15099;DHT22;33900;53.640;9.942;2023-03-01T00:33:37;4.70;76.50
15099;DHT22;33900;53.640;9.942;2023-03-01T00:36:04;4.60;76.50
15099;DHT22;33900;53.640;9.942;2023-03-01T00:38:30;4.60;76.50
15099;DHT22;33900;53.640;9.942;2023-03-01T00:41:03;4.60;76.60
15099;DHT22;33900;53.640;9.942;2023-03-01T00:43:29;4.60;76.60
15099;DHT22;33900;53.640;9.942;2023-03-01T00:45:54;4.60;76.70
15099;DHT22;33900;53.640;9.942;2023-03-01T00:48:20;4.60;76.70
15099;DHT22;33900;53.640;9.942;2023-03-01T00:50:46;4.50;76.80
15099;DHT22;33900;53.640;9.942;2023-03-01T00:53:11;4.50;76.80
15099;DHT22;33900;53.640;9.942;2023-03-01T00:55:37;4.50;76.80
15099;DHT22;33900;53.640;9.942;2023-03-01T00:58:02;4.50;76.90
15099;DHT22;33900;53.640;9.942;2023-03-01T01:00:28;4.50;77.00
15099;DHT22;33900;53.640;9.942;2023-03-01T01:02:54;4.50;77.00
15099;DHT22;33900;53.640;9.942;2023-03-01T01:05:20;4.50;77.10
15099;DHT22;33900;53.640;9.942;2023-03-01T01:07:46;4.40;77.10
15099;DHT22;33900;53.640;9.942;2023-03-01T01:10:12;4.50;77.20
15099;DHT22;33900;53.640;9.942;2023-03-01T01:12:45;4.50;77.30
15099;DHT22;33900;53.640;9.942;2023-03-01T01:15:11;4.40;77.30
15099;DHT22;33900;53.640;9.942;2023-03-01T01:17:39;4.40;77.30
15099;DHT22;33900;53.640;9.942;2023-03-01T01:20:05;4.40;77.30
15099;DHT22;33900;53.640;9.942;2023-03-01T01:22:31;4.40;77.40
15099;DHT22;33900;53.640;9.942;2023-03-01T01:24:57;4.40;77.50
15099;DHT22;33900;53.640;9.942;2023-03-01T01:27:23;4.40;77.50
15099;DHT22;33900;53.640;9.942;2023-03-01T01:29:49;4.40;77.60
15099;DHT22;33900;53.640;9.942;2023-03-01T01:32:15;4.40;77.70
15099;DHT22;33900;53.640;9.942;2023-03-01T01:34:40;4.40;77.80
15099;DHT22;33900;53.640;9.942;2023-03-01T01:37:06;4.30;77.80
15099;DHT22;33900;53.640;9.942;2023-03-01T01:39:34;4.30;77.80
15099;DHT22;33900;53.640;9.942;2023-03-01T01:42:00;4.30;77.90
15099;DHT22;33900;53.640;9.942;2023-03-01T01:44:26;4.30;78.00
15099;DHT22;33900;53.640;9.942;2023-03-01T01:46:54;4.30;78.00
15099;DHT22;33900;53.640;9.942;2023-03-01T01:49:28;4.30;78.10
15099;DHT22;33900;53.640;9.942;2023-03-01T01:51:58;4.20;78.10
15099;DHT22;33900;53.640;9.942;2023-03-01T01:54:37;4.20;78.10
15099;DHT22;33900;53.640;9.942;2023-03-01T01:57:06;4.20;79.00
15099;DHT22;33900;53.640;9.942;2023-03-01T01:59:33;4.20;78.30
15099;DHT22;33900;53.640;9.942;2023-03-01T02:02:00;4.20;78.40
15099;DHT22;33900;53.640;9.942;2023-03-01T02:04:28;4.20;78.40
15099;DHT22;33900;53.640;9.942;2023-03-01T02:07:09;4.20;78.40
15099;DHT22;33900;53.640;9.942;2023-03-01T02:09:36;4.10;78.40
15099;DHT22;33900;53.640;9.942;2023-03-01T02:12:02;4.10;78.50
15099;DHT22;33900;53.640;9.942;2023-03-01T02:14:29;4.10;78.60
15099;DHT22;33900;53.640;9.942;2023-03-01T02:16:55;4.10;78.60
15099;DHT22;33900;53.640;9.942;2023-03-01T02:19:42;4.10;78.70
15099;DHT22;33900;53.640;9.942;2023-03-01T02:27:16;4.10;78.90
15099;DHT22;33900;53.640;9.942;2023-03-01T02:29:42;4.00;78.90
15099;DHT22;33900;53.640;9.942;2023-03-01T02:32:09;4.00;78.90
15099;DHT22;33900;53.640;9.942;2023-03-01T02:34:37;4.00;79.00
15099;DHT22;33900;53.640;9.942;2023-03-01T02:37:05;4.00;79.00
15099;DHT22;33900;53.640;9.942;2023-03-01T02:39:42;4.00;79.10
15099;DHT22;33900;53.640;9.942;2023-03-01T02:42:14;4.00;79.10
15099;DHT22;33900;53.640;9.942;2023-03-01T02:44:41;4.00;79.10
15099;DHT22;33900;53.640;9.942;2023-03-01T02:47:06;4.00;79.20
15099;DHT22;33900;53.640;9.942;2023-03-01T02:49:33;4.00;79.30
15099;DHT22;33900;53.640;9.942;2023-03-01T02:57:30;4.00;79.40
15099;DHT22;33900;53.640;9.942;2023-03-01T02:59:57;3.90;79.40
15099;DHT22;33900;53.640;9.942;2023-03-01T03:02:25;3.90;79.50
15099;DHT22;33900;53.640;9.942;2023-03-01T03:05:09;3.90;79.60
15099;DHT22;33900;53.640;9.942;2023-03-01T03:07:36;3.90;79.60
15099;DHT22;33900;53.640;9.942;2023-03-01T03:10:03;3.90;79.60
15099;DHT22;33900;53.640;9.942;2023-03-01T03:12:30;3.90;79.80
15099;DHT22;33900;53.640;9.942;2023-03-01T03:14:55;3.90;79.80
15099;DHT22;33900;53.640;9.942;2023-03-01T03:17:21;3.90;79.80
15099;DHT22;33900;53.640;9.942;2023-03-01T03:19:46;3.90;79.90
15099;DHT22;33900;53.640;9.942;2023-03-01T03:22:12;3.80;79.90
15099;DHT22;33900;53.640;9.942;2023-03-01T03:24:38;3.80;79.90
15099;DHT22;33900;53.640;9.942;2023-03-01T03:27:04;3.80;79.90
15099;DHT22;33900;53.640;9.942;2023-03-01T03:29:30;3.80;80.00
15099;DHT22;33900;53.640;9.942;2023-03-01T03:31:55;3.80;80.00
15099;DHT22;33900;53.640;9.942;2023-03-01T03:34:21;3.80;80.10
15099;DHT22;33900;53.640;9.942;2023-03-01T03:36:47;3.80;80.10
15099;DHT22;33900;53.640;9.942;2023-03-01T03:39:12;3.80;80.20
15099;DHT22;33900;53.640;9.942;2023-03-01T03:41:38;3.80;80.30
15099;DHT22;33900;53.640;9.942;2023-03-01T03:44:03;3.80;80.30
15099;DHT22;33900;53.640;9.942;2023-03-01T03:46:30;3.80;80.30
15099;DHT22;33900;53.640;9.942;2023-03-01T03:48:55;3.80;80.30
15099;DHT22;33900;53.640;9.942;2023-03-01T03:51:23;3.90;80.40
15099;DHT22;33900;53.640;9.942;2023-03-01T03:53:48;3.90;80.40
15099;DHT22;33900;53.640;9.942;2023-03-01T03:56:14;3.90;80.40
15099;DHT22;33900;53.640;9.942;2023-03-01T03:58:40;3.90;80.40
15099;DHT22;33900;53.640;9.942;2023-03-01T04:01:05;3.90;80.40
15099;DHT22;33900;53.640;9.942;2023-03-01T04:03:31;3.90;80.50
15099;DHT22;33900;53.640;9.942;2023-03-01T04:05:57;3.90;80.50
15099;DHT22;33900;53.640;9.942;2023-03-01T04:08:23;3.90;80.50
15099;DHT22;33900;53.640;9.942;2023-03-01T04:10:50;3.90;80.50
15099;DHT22;33900;53.640;9.942;2023-03-01T04:13:17;3.90;80.60
15099;DHT22;33900;53.640;9.942;2023-03-01T04:15:48;3.90;80.60
15099;DHT22;33900;53.640;9.942;2023-03-01T04:18:15;4.00;80.60
15099;DHT22;33900;53.640;9.942;2023-03-01T04:20:41;3.90;80.60
15099;DHT22;33900;53.640;9.942;2023-03-01T04:23:14;3.90;80.70
15099;DHT22;33900;53.640;9.942;2023-03-01T04:28:14;3.90;80.70
15099;DHT22;33900;53.640;9.942;2023-03-01T04:30:43;4.00;80.80
15099;DHT22;33900;53.640;9.942;2023-03-01T04:33:09;3.90;80.70
15099;DHT22;33900;53.640;9.942;2023-03-01T04:35:35;4.00;80.80
15099;DHT22;33900;53.640;9.942;2023-03-01T04:38:01;4.00;80.80
15099;DHT22;33900;53.640;9.942;2023-03-01T04:40:27;4.00;80.80
15099;DHT22;33900;53.640;9.942;2023-03-01T04:42:57;4.00;80.90
15099;DHT22;33900;53.640;9.942;2023-03-01T04:45:26;4.00;80.80
15099;DHT22;33900;53.640;9.942;2023-03-01T04:47:53;4.00;80.80
15099;DHT22;33900;53.640;9.942;2023-03-01T04:50:19;4.10;80.90
15099;DHT22;33900;53.640;9.942;2023-03-01T04:52:48;4.10;80.90
15099;DHT22;33900;53.640;9.942;2023-03-01T04:55:14;4.10;80.80
15099;DHT22;33900;53.640;9.942;2023-03-01T04:57:40;4.20;80.80
15099;DHT22;33900;53.640;9.942;2023-03-01T05:00:07;4.20;80.80
15099;DHT22;33900;53.640;9.942;2023-03-01T05:02:49;4.20;80.80
15099;DHT22;33900;53.640;9.942;2023-03-01T05:05:22;4.30;80.90
15099;DHT22;33900;53.640;9.942;2023-03-01T05:07:57;4.30;80.90
15099;DHT22;33900;53.640;9.942;2023-03-01T05:10:24;4.30;80.90
15099;DHT22;33900;53.640;9.942;2023-03-01T05:12:50;4.30;81.00
15099;DHT22;33900;53.640;9.942;2023-03-01T05:15:17;4.40;81.00
15099;DHT22;33900;53.640;9.942;2023-03-01T05:17:43;4.40;81.00
15099;DHT22;33900;53.640;9.942;2023-03-01T05:20:09;4.40;81.00
15099;DHT22;33900;53.640;9.942;2023-03-01T05:22:35;4.40;81.00
15099;DHT22;33900;53.640;9.942;2023-03-01T05:25:01;4.40;81.10
15099;DHT22;33900;53.640;9.942;2023-03-01T05:27:27;4.40;81.10
15099;DHT22;33900;53.640;9.942;2023-03-01T05:29:53;4.50;81.10
15099;DHT22;33900;53.640;9.942;2023-03-01T05:32:18;4.50;81.10
15099;DHT22;33900;53.640;9.942;2023-03-01T05:34:44;4.50;81.10
15099;DHT22;33900;53.640;9.942;2023-03-01T05:37:11;4.50;81.10
15099;DHT22;33900;53.640;9.942;2023-03-01T05:39:37;4.60;81.20
15099;DHT22;33900;53.640;9.942;2023-03-01T05:42:03;4.60;81.10
15099;DHT22;33900;53.640;9.942;2023-03-01T05:44:28;4.60;81.10
15099;DHT22;33900;53.640;9.942;2023-03-01T05:46:54;4.60;81.10
15099;DHT22;33900;53.640;9.942;2023-03-01T05:49:20;4.70;81.20
15099;DHT22;33900;53.640;9.942;2023-03-01T05:51:50;4.60;81.00
15099;DHT22;33900;53.640;9.942;2023-03-01T05:54:16;4.70;81.10
15099;DHT22;33900;53.640;9.942;2023-03-01T05:56:41;4.70;81.10
15099;DHT22;33900;53.640;9.942;2023-03-01T05:59:07;4.70;81.10
15099;DHT22;33900;53.640;9.942;2023-03-01T06:01:33;4.70;81.10
15099;DHT22;33900;53.640;9.942;2023-03-01T06:03:58;4.70;81.10
15099;DHT22;33900;53.640;9.942;2023-03-01T06:06:24;4.70;81.00
15099;DHT22;33900;53.640;9.942;2023-03-01T06:08:50;4.70;81.00
15099;DHT22;33900;53.640;9.942;2023-03-01T06:11:16;4.70;81.00
15099;DHT22;33900;53.640;9.942;2023-03-01T06:13:44;4.70;81.00
15099;DHT22;33900;53.640;9.942;2023-03-01T06:16:10;4.70;81.00
15099;DHT22;33900;53.640;9.942;2023-03-01T06:18:36;4.70;81.00
15099;DHT22;33900;53.640;9.942;2023-03-01T06:21:02;4.70;81.00
15099;DHT22;33900;53.640;9.942;2023-03-01T06:23:28;4.70;80.90
15099;DHT22;33900;53.640;9.942;2023-03-01T06:25:54;4.60;80.90
15099;DHT22;33900;53.640;9.942;2023-03-01T06:28:19;4.70;80.90
15099;DHT22;33900;53.640;9.942;2023-03-01T06:30:45;4.70;80.90
15099;DHT22;33900;53.640;9.942;2023-03-01T06:33:11;4.70;80.90
15099;DHT22;33900;53.640;9.942;2023-03-01T06:35:37;4.70;80.90
15099;DHT22;33900;53.640;9.942;2023-03-01T06:38:05;4.70;81.70
15099;DHT22;33900;53.640;9.942;2023-03-01T06:40:31;4.70;80.90
15099;DHT22;33900;53.640;9.942;2023-03-01T06:42:57;4.70;80.90
15099;DHT22;33900;53.640;9.942;2023-03-01T06:45:23;4.80;80.90
15099;DHT22;33900;53.640;9.942;2023-03-01T06:47:48;4.80;80.90
15099;DHT22;33900;53.640;9.942;2023-03-01T06:50:14;4.80;80.90
15099;DHT22;33900;53.640;9.942;2023-03-01T06:52:40;4.80;80.90
15099;DHT22;33900;53.640;9.942;2023-03-01T06:55:06;4.80;80.90
15099;DHT22;33900;53.640;9.942;2023-03-01T06:57:32;4.80;80.80
15099;DHT22;33900;53.640;9.942;2023-03-01T06:59:58;4.90;80.90
15099;DHT22;33900;53.640;9.942;2023-03-01T07:02:23;4.90;80.80
15099;DHT22;33900;53.640;9.942;2023-03-01T07:04:49;4.90;80.80
15099;DHT22;33900;53.640;9.942;2023-03-01T07:07:16;4.90;80.70
15099;DHT22;33900;53.640;9.942;2023-03-01T07:09:44;4.90;80.70
15099;DHT22;33900;53.640;9.942;2023-03-01T07:12:10;5.00;80.80
15099;DHT22;33900;53.640;9.942;2023-03-01T07:14:35;5.00;80.70
15099;DHT22;33900;53.640;9.942;2023-03-01T07:17:01;5.00;80.70
15099;DHT22;33900;53.640;9.942;2023-03-01T07:19:27;5.00;80.70
15099;DHT22;33900;53.640;9.942;2023-03-01T07:21:52;5.10;80.70
15099;DHT22;33900;53.640;9.942;2023-03-01T07:24:18;5.00;80.60
15099;DHT22;33900;53.640;9.942;2023-03-01T07:26:44;5.10;80.70
15099;DHT22;33900;53.640;9.942;2023-03-01T07:29:10;5.10;80.70
15099;DHT22;33900;53.640;9.942;2023-03-01T07:31:35;5.10;80.60
15099;DHT22;33900;53.640;9.942;2023-03-01T07:34:02;5.10;80.60
15099;DHT22;33900;53.640;9.942;2023-03-01T07:36:27;5.10;80.60
15099;DHT22;33900;53.640;9.942;2023-03-01T07:38:53;5.20;80.60
15099;DHT22;33900;53.640;9.942;2023-03-01T07:41:21;5.20;80.60
15099;DHT22;33900;53.640;9.942;2023-03-01T07:43:47;5.20;80.60
15099;DHT22;33900;53.640;9.942;2023-03-01T07:46:13;5.20;80.60
15099;DHT22;33900;53.640;9.942;2023-03-01T07:48:38;5.30;80.60
15099;DHT22;33900;53.640;9.942;2023-03-01T07:51:04;5.30;80.60
15099;DHT22;33900;53.640;9.942;2023-03-01T07:53:33;5.30;80.50
15099;DHT22;33900;53.640;9.942;2023-03-01T07:56:00;5.30;80.50
15099;DHT22;33900;53.640;9.942;2023-03-01T07:58:25;5.30;80.60
15099;DHT22;33900;53.640;9.942;2023-03-01T08:00:51;5.30;80.60
15099;DHT22;33900;53.640;9.942;2023-03-01T08:03:16;5.40;80.60
15099;DHT22;33900;53.640;9.942;2023-03-01T08:05:42;5.30;80.60
15099;DHT22;33900;53.640;9.942;2023-03-01T08:08:07;5.40;80.80
15099;DHT22;33900;53.640;9.942;2023-03-01T08:10:33;5.40;80.80
15099;DHT22;33900;53.640;9.942;2023-03-01T08:12:59;5.50;80.80
15099;DHT22;33900;53.640;9.942;2023-03-01T08:15:24;5.50;80.80
15099;DHT22;33900;53.640;9.942;2023-03-01T08:17:50;5.50;80.80
15099;DHT22;33900;53.640;9.942;2023-03-01T08:20:16;5.50;80.90
15099;DHT22;33900;53.640;9.942;2023-03-01T08:22:42;5.50;81.00
15099;DHT22;33900;53.640;9.942;2023-03-01T08:25:07;5.60;81.00
15099;DHT22;33900;53.640;9.942;2023-03-01T08:27:35;5.60;81.20
15099;DHT22;33900;53.640;9.942;2023-03-01T08:30:01;5.60;81.10
15099;DHT22;33900;53.640;9.942;2023-03-01T08:32:26;5.60;81.20
15099;DHT22;33900;53.640;9.942;2023-03-01T08:34:53;5.60;81.20
15099;DHT22;33900;53.640;9.942;2023-03-01T08:37:19;5.70;81.30
15099;DHT22;33900;53.640;9.942;2023-03-01T08:39:45;5.70;81.30
15099;DHT22;33900;53.640;9.942;2023-03-01T08:42:10;5.70;81.40
15099;DHT22;33900;53.640;9.942;2023-03-01T08:44:36;5.70;81.40
15099;DHT22;33900;53.640;9.942;2023-03-01T08:47:02;5.70;81.40
15099;DHT22;33900;53.640;9.942;2023-03-01T08:49:28;5.80;81.50
15099;DHT22;33900;53.640;9.942;2023-03-01T08:51:54;5.80;81.60
15099;DHT22;33900;53.640;9.942;2023-03-01T08:54:20;5.80;81.60
15099;DHT22;33900;53.640;9.942;2023-03-01T08:56:46;5.80;81.70
15099;DHT22;33900;53.640;9.942;2023-03-01T08:59:12;5.90;81.70
15099;DHT22;33900;53.640;9.942;2023-03-01T09:01:38;5.90;81.80
15099;DHT22;33900;53.640;9.942;2023-03-01T09:04:03;5.90;81.80
15099;DHT22;33900;53.640;9.942;2023-03-01T09:06:33;5.90;81.80
15099;DHT22;33900;53.640;9.942;2023-03-01T09:08:59;6.00;81.90
15099;DHT22;33900;53.640;9.942;2023-03-01T09:11:24;6.00;82.00
15099;DHT22;33900;53.640;9.942;2023-03-01T09:13:50;6.00;82.00
15099;DHT22;33900;53.640;9.942;2023-03-01T09:16:17;6.00;82.10
15099;DHT22;33900;53.640;9.942;2023-03-01T09:18:43;6.10;82.30
15099;DHT22;33900;53.640;9.942;2023-03-01T09:21:13;6.10;82.30
15099;DHT22;33900;53.640;9.942;2023-03-01T09:23:40;6.10;82.50
15099;DHT22;33900;53.640;9.942;2023-03-01T09:26:07;6.10;82.60
15099;DHT22;33900;53.640;9.942;2023-03-01T09:28:34;6.10;82.70
15099;DHT22;33900;53.640;9.942;2023-03-01T09:31:00;6.20;82.80
15099;DHT22;33900;53.640;9.942;2023-03-01T09:33:27;6.20;82.80
15099;DHT22;33900;53.640;9.942;2023-03-01T09:35:57;6.30;82.90
15099;DHT22;33900;53.640;9.942;2023-03-01T09:38:23;6.30;83.00
15099;DHT22;33900;53.640;9.942;2023-03-01T09:40:48;6.30;83.10
15099;DHT22;33900;53.640;9.942;2023-03-01T09:43:23;6.30;83.20
15099;DHT22;33900;53.640;9.942;2023-03-01T09:45:51;6.40;83.20
15099;DHT22;33900;53.640;9.942;2023-03-01T09:48:18;6.40;83.20
15099;DHT22;33900;53.640;9.942;2023-03-01T09:50:47;6.50;83.40
15099;DHT22;33900;53.640;9.942;2023-03-01T09:53:15;6.50;83.40
15099;DHT22;33900;53.640;9.942;2023-03-01T10:00:44;6.60;83.40
15099;DHT22;33900;53.640;9.942;2023-03-01T10:03:17;6.70;83.40
15099;DHT22;33900;53.640;9.942;2023-03-01T10:08:31;6.80;83.50
15099;DHT22;33900;53.640;9.942;2023-03-01T10:11:02;6.80;83.50
15099;DHT22;33900;53.640;9.942;2023-03-01T10:15:55;6.90;83.70
15099;DHT22;33900;53.640;9.942;2023-03-01T10:18:24;7.00;83.90
15099;DHT22;33900;53.640;9.942;2023-03-01T10:23:17;7.10;84.00
15099;DHT22;33900;53.640;9.942;2023-03-01T10:25:44;7.20;84.10
15099;DHT22;33900;53.640;9.942;2023-03-01T10:28:34;7.20;84.10
15099;DHT22;33900;53.640;9.942;2023-03-01T10:31:05;7.30;84.00
15099;DHT22;33900;53.640;9.942;2023-03-01T10:33:31;7.40;84.10
15099;DHT22;33900;53.640;9.942;2023-03-01T10:35:57;7.40;84.10
15099;DHT22;33900;53.640;9.942;2023-03-01T10:38:23;7.50;84.30
15099;DHT22;33900;53.640;9.942;2023-03-01T10:41:05;7.50;84.40
15099;DHT22;33900;53.640;9.942;2023-03-01T10:43:44;7.60;84.40
15099;DHT22;33900;53.640;9.942;2023-03-01T10:49:13;7.70;84.60
15099;DHT22;33900;53.640;9.942;2023-03-01T10:51:43;7.70;84.50
15099;DHT22;33900;53.640;9.942;2023-03-01T10:54:16;7.70;84.50
15099;DHT22;33900;53.640;9.942;2023-03-01T10:56:46;7.70;84.40
15099;DHT22;33900;53.640;9.942;2023-03-01T11:04:36;7.90;84.50
15099;DHT22;33900;53.640;9.942;2023-03-01T11:07:02;7.90;84.50
15099;DHT22;33900;53.640;9.942;2023-03-01T11:09:30;7.90;84.40
15099;DHT22;33900;53.640;9.942;2023-03-01T11:12:03;8.00;84.60
15099;DHT22;33900;53.640;9.942;2023-03-01T11:14:35;8.00;84.60
15099;DHT22;33900;53.640;9.942;2023-03-01T11:17:05;8.00;84.70
15099;DHT22;33900;53.640;9.942;2023-03-01T11:19:31;8.10;84.90
15099;DHT22;33900;53.640;9.942;2023-03-01T11:24:51;8.30;84.90
15099;DHT22;33900;53.640;9.942;2023-03-01T11:27:16;8.40;85.20
15099;DHT22;33900;53.640;9.942;2023-03-01T11:29:44;8.50;85.10
15099;DHT22;33900;53.640;9.942;2023-03-01T11:32:13;8.60;85.20
15099;DHT22;33900;53.640;9.942;2023-03-01T11:34:40;8.70;85.20
15099;DHT22;33900;53.640;9.942;2023-03-01T11:37:10;8.80;85.10
15099;DHT22;33900;53.640;9.942;2023-03-01T11:39:38;8.90;85.10
15099;DHT22;33900;53.640;9.942;2023-03-01T11:42:06;9.00;85.10
15099;DHT22;33900;53.640;9.942;2023-03-01T11:44:35;9.00;85.00
15099;DHT22;33900;53.640;9.942;2023-03-01T11:49:41;9.20;85.00
15099;DHT22;33900;53.640;9.942;2023-03-01T11:57:20;9.50;84.90
15099;DHT22;33900;53.640;9.942;2023-03-01T11:59:57;9.60;84.80
15099;DHT22;33900;53.640;9.942;2023-03-01T12:05:20;9.80;84.80
15099;DHT22;33900;53.640;9.942;2023-03-01T12:10:27;9.90;84.40
15099;DHT22;33900;53.640;9.942;2023-03-01T12:23:53;10.20;84.10
15099;DHT22;33900;53.640;9.942;2023-03-01T12:26:33;10.20;84.10
15099;DHT22;33900;53.640;9.942;2023-03-01T12:34:18;10.40;83.90
15099;DHT22;33900;53.640;9.942;2023-03-01T12:36:53;10.40;83.90
15099;DHT22;33900;53.640;9.942;2023-03-01T12:41:55;10.60;84.20
15099;DHT22;33900;53.640;9.942;2023-03-01T12:44:33;10.70;84.00
15099;DHT22;33900;53.640;9.942;2023-03-01T12:52:04;11.00;83.70
15099;DHT22;33900;53.640;9.942;2023-03-01T12:54:35;11.10;83.50
15099;DHT22;33900;53.640;9.942;2023-03-01T12:57:25;11.20;82.70
15099;DHT22;33900;53.640;9.942;2023-03-01T12:59:51;11.30;82.50
15099;DHT22;33900;53.640;9.942;2023-03-01T13:02:37;11.40;82.70
15099;DHT22;33900;53.640;9.942;2023-03-01T13:05:26;11.40;82.30
15099;DHT22;33900;53.640;9.942;2023-03-01T13:08:01;11.50;82.20
15099;DHT22;33900;53.640;9.942;2023-03-01T13:10:39;11.60;82.00
15099;DHT22;33900;53.640;9.942;2023-03-01T13:13:14;11.70;81.80
15099;DHT22;33900;53.640;9.942;2023-03-01T13:15:39;11.80;81.50
15099;DHT22;33900;53.640;9.942;2023-03-01T13:20:47;11.90;80.80
15099;DHT22;33900;53.640;9.942;2023-03-01T13:30:59;12.10;80.30
15099;DHT22;33900;53.640;9.942;2023-03-01T13:35:58;12.20;79.90
15099;DHT22;33900;53.640;9.942;2023-03-01T13:41:09;12.20;79.10
15099;DHT22;33900;53.640;9.942;2023-03-01T13:43:38;12.20;78.90
15099;DHT22;33900;53.640;9.942;2023-03-01T13:46:20;12.30;78.90
15099;DHT22;33900;53.640;9.942;2023-03-01T13:48:50;12.20;78.50
15099;DHT22;33900;53.640;9.942;2023-03-01T13:51:20;12.20;77.90
15099;DHT22;33900;53.640;9.942;2023-03-01T13:53:46;12.20;78.20
15099;DHT22;33900;53.640;9.942;2023-03-01T13:56:14;12.20;78.20
15099;DHT22;33900;53.640;9.942;2023-03-01T13:58:46;12.20;77.90
15099;DHT22;33900;53.640;9.942;2023-03-01T14:01:20;12.20;78.00
15099;DHT22;33900;53.640;9.942;2023-03-01T14:03:46;12.30;78.10
15099;DHT22;33900;53.640;9.942;2023-03-01T14:06:13;12.20;77.90
15099;DHT22;33900;53.640;9.942;2023-03-01T14:08:39;12.20;77.70
15099;DHT22;33900;53.640;9.942;2023-03-01T14:11:22;12.30;77.90
15099;DHT22;33900;53.640;9.942;2023-03-01T14:13:57;12.30;77.90
15099;DHT22;33900;53.640;9.942;2023-03-01T14:21:33;12.30;77.60
15099;DHT22;33900;53.640;9.942;2023-03-01T14:23:59;12.30;77.40
15099;DHT22;33900;53.640;9.942;2023-03-01T14:26:24;12.30;77.20
15099;DHT22;33900;53.640;9.942;2023-03-01T14:28:50;12.30;77.20
15099;DHT22;33900;53.640;9.942;2023-03-01T14:31:38;12.30;77.20
15099;DHT22;33900;53.640;9.942;2023-03-01T14:34:04;12.30;77.20
15099;DHT22;33900;53.640;9.942;2023-03-01T14:36:30;12.30;77.10
15099;DHT22;33900;53.640;9.942;2023-03-01T14:38:57;12.30;77.10
15099;DHT22;33900;53.640;9.942;2023-03-01T14:41:31;12.30;77.00
15099;DHT22;33900;53.640;9.942;2023-03-01T14:44:02;12.30;76.80
15099;DHT22;33900;53.640;9.942;2023-03-01T14:49:42;12.10;76.70
15099;DHT22;33900;53.640;9.942;2023-03-01T14:51:52;12.10;76.80
15099;DHT22;33900;53.640;9.942;2023-03-01T14:54:20;12.10;76.90
15099;DHT22;33900;53.640;9.942;2023-03-01T14:56:47;12.00;76.80
15099;DHT22;33900;53.640;9.942;2023-03-01T14:59:12;12.00;76.80
15099;DHT22;33900;53.640;9.942;2023-03-01T15:01:39;11.90;76.80
15099;DHT22;33900;53.640;9.942;2023-03-01T15:04:06;11.90;76.90
15099;DHT22;33900;53.640;9.942;2023-03-01T15:06:32;11.90;77.00
15099;DHT22;33900;53.640;9.942;2023-03-01T15:08:57;11.80;76.90
15099;DHT22;33900;53.640;9.942;2023-03-01T15:11:27;11.80;76.90
15099;DHT22;33900;53.640;9.942;2023-03-01T15:13:52;11.70;76.90
15099;DHT22;33900;53.640;9.942;2023-03-01T15:16:21;11.70;77.00
15099;DHT22;33900;53.640;9.942;2023-03-01T15:18:48;11.60;77.00
15099;DHT22;33900;53.640;9.942;2023-03-01T15:23:50;11.50;77.10
15099;DHT22;33900;53.640;9.942;2023-03-01T15:26:22;11.40;77.10
15099;DHT22;33900;53.640;9.942;2023-03-01T15:28:50;11.40;77.30
15099;DHT22;33900;53.640;9.942;2023-03-01T15:31:23;11.30;77.20
15099;DHT22;33900;53.640;9.942;2023-03-01T15:33:49;11.30;77.30
15099;DHT22;33900;53.640;9.942;2023-03-01T15:38:56;11.20;78.20
15099;DHT22;33900;53.640;9.942;2023-03-01T15:41:27;11.10;77.40
15099;DHT22;33900;53.640;9.942;2023-03-01T15:43:56;11.00;77.50
15099;DHT22;33900;53.640;9.942;2023-03-01T15:46:32;11.00;77.60
15099;DHT22;33900;53.640;9.942;2023-03-01T15:49:01;11.00;77.70
15099;DHT22;33900;53.640;9.942;2023-03-01T15:51:28;10.90;77.60
15099;DHT22;33900;53.640;9.942;2023-03-01T15:53:55;10.90;77.70
15099;DHT22;33900;53.640;9.942;2023-03-01T15:56:23;10.90;77.90
15099;DHT22;33900;53.640;9.942;2023-03-01T15:58:49;10.80;77.90
15099;DHT22;33900;53.640;9.942;2023-03-01T16:01:16;10.80;78.00
15099;DHT22;33900;53.640;9.942;2023-03-01T16:03:44;10.70;78.00
15099;DHT22;33900;53.640;9.942;2023-03-01T16:06:11;10.70;78.00
15099;DHT22;33900;53.640;9.942;2023-03-01T16:08:37;10.60;78.00
15099;DHT22;33900;53.640;9.942;2023-03-01T16:11:04;10.60;78.10
15099;DHT22;33900;53.640;9.942;2023-03-01T16:13:31;10.50;78.10
15099;DHT22;33900;53.640;9.942;2023-03-01T16:15:57;10.60;78.20
15099;DHT22;33900;53.640;9.942;2023-03-01T16:18:23;10.40;78.20
15099;DHT22;33900;53.640;9.942;2023-03-01T16:20:49;10.40;78.20
15099;DHT22;33900;53.640;9.942;2023-03-01T16:23:16;10.30;78.20
15099;DHT22;33900;53.640;9.942;2023-03-01T16:25:42;10.30;78.20
15099;DHT22;33900;53.640;9.942;2023-03-01T16:28:08;10.20;78.10
15099;DHT22;33900;53.640;9.942;2023-03-01T16:30:35;10.20;78.10
15099;DHT22;33900;53.640;9.942;2023-03-01T16:33:01;10.10;78.10
15099;DHT22;33900;53.640;9.942;2023-03-01T16:35:27;10.10;78.10
15099;DHT22;33900;53.640;9.942;2023-03-01T16:37:52;10.00;78.20
15099;DHT22;33900;53.640;9.942;2023-03-01T16:40:21;10.00;78.20
15099;DHT22;33900;53.640;9.942;2023-03-01T16:42:47;9.90;78.30
15099;DHT22;33900;53.640;9.942;2023-03-01T16:45:13;9.90;78.40
15099;DHT22;33900;53.640;9.942;2023-03-01T16:47:39;9.80;78.30
15099;DHT22;33900;53.640;9.942;2023-03-01T16:50:04;9.80;78.40
15099;DHT22;33900;53.640;9.942;2023-03-01T16:52:31;9.70;78.40
15099;DHT22;33900;53.640;9.942;2023-03-01T16:54:58;9.70;78.50
15099;DHT22;33900;53.640;9.942;2023-03-01T16:57:24;9.60;78.50
15099;DHT22;33900;53.640;9.942;2023-03-01T16:59:52;9.60;78.60
15099;DHT22;33900;53.640;9.942;2023-03-01T17:02:21;9.50;78.60
15099;DHT22;33900;53.640;9.942;2023-03-01T17:04:53;9.50;78.70
15099;DHT22;33900;53.640;9.942;2023-03-01T17:07:20;9.40;78.70
15099;DHT22;33900;53.640;9.942;2023-03-01T17:09:45;9.40;78.90
15099;DHT22;33900;53.640;9.942;2023-03-01T17:12:12;9.30;78.90
15099;DHT22;33900;53.640;9.942;2023-03-01T17:14:38;9.30;78.90
15099;DHT22;33900;53.640;9.942;2023-03-01T17:17:07;9.20;79.00
15099;DHT22;33900;53.640;9.942;2023-03-01T17:19:35;9.20;79.10
15099;DHT22;33900;53.640;9.942;2023-03-01T17:22:05;9.10;79.30
15099;DHT22;33900;53.640;9.942;2023-03-01T17:24:34;9.10;80.00
15099;DHT22;33900;53.640;9.942;2023-03-01T17:27:00;9.10;79.30
15099;DHT22;33900;53.640;9.942;2023-03-01T17:29:26;9.00;79.40